Etusivu
METAR-TAF:

METAR-TAF

Lentoasemat :

South St. Paul Municipal Airport (Richard E. Fleming Field)

South St. Paul, Minnesota, Yhdysvallat

Leveyspiiri: 44-51-26N, Pituuspiiri: 093-01-58W, korkeus merenpinnasta: 250 m

Tämänhetkinen sää

Tämä raportti tehtiin 27 minuuttia sitten, kello 09.15 UTC
Tuuli 14 kn luoteesta puuskistuen 20 kn:hen
Lämpötila 9°C
Kosteus 43%
Ilmanpaine 1014 hPa
Näkyvyys: 16.1 km
selkeää

METAR: KSGS 260915Z AUTO 32014G20KT 10SM CLR 09/M03 A2994 RMK AO2 T00871033

Aika: 04:42 (09:42 UTC)


TAF: puuttuu

Säähavainnot ja -ennusteet yli 4000 lentoasemalta (METAR- ja TAF-raportit).

Käytössä olevat sääasemat on merkitty karttaan keltaisilla ja punaisilla pisteillä.

Aseta hiiri pisteen päälle nähdäksesi sääaseman nimen.

Klikkaa sitten nähdäksesi säähavainnot ja -ennusteet.

Kartan vaihtaminen: klikkaa mustalla rastilla varustettuja vihreitä pisteitä, niin voit zoomata sisään; viivalla varustettua vihreää pistettä, niin voit zoomata ulos tai vihreitä nuolia, niin pääset viereisille kartoille.


METAR-TAF: